createdAt,value
2017-11-08T00:00:55.506Z,0
2017-11-08T00:01:57.869Z,0
2017-11-08T00:03:00.407Z,0
2017-11-08T00:04:02.774Z,0
2017-11-08T00:05:05.178Z,0
2017-11-08T00:06:07.642Z,0
2017-11-08T00:07:10.020Z,0
2017-11-08T00:08:12.576Z,0
2017-11-08T00:09:15.670Z,0
2017-11-08T00:10:18.200Z,0
2017-11-08T00:11:20.580Z,0
2017-11-08T00:12:23.448Z,0
2017-11-08T00:13:25.843Z,0
2017-11-08T00:14:28.217Z,0
2017-11-08T00:15:30.773Z,0
2017-11-08T00:16:33.150Z,0
2017-11-08T00:17:35.530Z,0
2017-11-08T00:18:38.006Z,0
2017-11-08T00:19:40.369Z,0
2017-11-08T00:20:42.988Z,0
2017-11-08T00:21:45.716Z,0
2017-11-08T00:22:48.142Z,0
2017-11-08T00:23:50.573Z,0
2017-11-08T00:24:52.948Z,0
2017-11-08T00:25:55.516Z,0
2017-11-08T00:26:57.881Z,0
2017-11-08T00:28:00.419Z,0
2017-11-08T00:29:03.147Z,0
2017-11-08T00:30:05.506Z,0
2017-11-08T00:31:07.881Z,0
2017-11-08T00:32:10.608Z,0
2017-11-08T00:33:13.424Z,0
2017-11-08T00:34:15.802Z,0
2017-11-08T00:35:18.432Z,0
2017-11-08T00:36:20.798Z,0
2017-11-08T00:37:23.175Z,0
2017-11-08T00:38:25.558Z,0
2017-11-08T00:39:27.924Z,0
2017-11-08T00:40:30.385Z,0
2017-11-08T00:41:32.755Z,0
2017-11-08T00:42:35.130Z,0
2017-11-08T00:43:37.567Z,0
2017-11-08T00:44:39.995Z,0
2017-11-08T00:45:42.456Z,0
2017-11-08T00:46:44.943Z,0
2017-11-08T00:47:47.317Z,0
2017-11-08T00:48:49.795Z,0
2017-11-08T00:49:52.168Z,0
2017-11-08T00:50:54.547Z,0
2017-11-08T00:51:57.257Z,0
2017-11-08T00:52:59.637Z,0
2017-11-08T00:54:02.034Z,0
2017-11-08T00:55:04.399Z,0
2017-11-08T00:56:06.780Z,0
2017-11-08T00:57:09.184Z,0
2017-11-08T00:58:11.830Z,0
2017-11-08T00:59:14.766Z,0
2017-11-08T01:00:17.269Z,0
2017-11-08T01:01:19.631Z,0
2017-11-08T01:02:22.134Z,0
2017-11-08T01:03:25.188Z,0
2017-11-08T01:04:27.570Z,0
2017-11-08T01:05:29.939Z,0
2017-11-08T01:06:32.308Z,0
2017-11-08T01:07:34.701Z,0
2017-11-08T01:08:37.067Z,0
2017-11-08T01:09:39.429Z,0
2017-11-08T01:10:41.808Z,0
2017-11-08T01:11:44.175Z,0
2017-11-08T01:12:46.561Z,0
2017-11-08T01:13:48.930Z,0
2017-11-08T01:14:51.287Z,0
2017-11-08T01:15:53.661Z,0
2017-11-08T01:16:56.047Z,0
2017-11-08T01:17:58.411Z,0
2017-11-08T01:19:00.788Z,0
2017-11-08T01:20:03.162Z,0
2017-11-08T01:21:05.548Z,0
2017-11-08T01:22:07.914Z,0
2017-11-08T01:23:10.293Z,0
2017-11-08T01:24:12.667Z,0
2017-11-08T01:25:15.376Z,0
2017-11-08T01:26:17.766Z,0
2017-11-08T01:27:20.133Z,0
2017-11-08T01:28:22.496Z,0
2017-11-08T01:29:24.873Z,0
2017-11-08T01:30:27.598Z,0
2017-11-08T01:31:29.970Z,0
2017-11-08T01:32:32.352Z,0
2017-11-08T01:33:34.713Z,0
2017-11-08T01:34:37.084Z,0
2017-11-08T01:35:39.468Z,0
2017-11-08T01:36:41.828Z,0
2017-11-08T01:37:44.210Z,0
2017-11-08T01:38:46.585Z,0
2017-11-08T01:39:48.956Z,0
2017-11-08T01:40:51.683Z,0
2017-11-08T01:41:54.058Z,0
2017-11-08T01:42:56.423Z,0
2017-11-08T01:43:58.797Z,0
2017-11-08T01:45:01.179Z,0
2017-11-08T01:46:03.550Z,0
2017-11-08T01:47:05.929Z,0
2017-11-08T01:48:08.297Z,0
2017-11-08T01:49:10.674Z,0
2017-11-08T01:50:13.760Z,0
2017-11-08T01:51:16.134Z,0
2017-11-08T01:52:18.496Z,0
2017-11-08T01:53:20.880Z,0
2017-11-08T01:54:23.246Z,0
2017-11-08T01:55:25.623Z,0
2017-11-08T01:56:27.989Z,0
2017-11-08T01:57:30.359Z,0
2017-11-08T01:58:32.729Z,0
2017-11-08T01:59:35.106Z,0
2017-11-08T02:00:37.842Z,0
2017-11-08T02:01:40.208Z,0
2017-11-08T02:02:42.580Z,0
2017-11-08T02:03:44.955Z,0
2017-11-08T02:04:47.328Z,0
2017-11-08T02:05:49.701Z,0
2017-11-08T02:06:52.072Z,0
2017-11-08T02:07:54.455Z,0
2017-11-08T02:08:56.830Z,0
2017-11-08T02:09:59.200Z,0
2017-11-08T02:11:01.567Z,0
2017-11-08T02:12:03.945Z,0
2017-11-08T02:13:06.303Z,0
2017-11-08T02:14:09.058Z,0
2017-11-08T02:15:11.781Z,0
2017-11-08T02:16:14.149Z,0
2017-11-08T02:17:16.529Z,0
2017-11-08T02:18:18.898Z,0
2017-11-08T02:19:21.278Z,0
2017-11-08T02:20:23.998Z,0
2017-11-08T02:21:26.364Z,0
2017-11-08T02:22:28.742Z,0
2017-11-08T02:23:31.116Z,0
2017-11-08T02:24:33.489Z,0
2017-11-08T02:25:35.867Z,0
2017-11-08T02:26:38.236Z,0
2017-11-08T02:27:40.611Z,0
2017-11-08T02:28:42.979Z,0
2017-11-08T02:29:45.352Z,0
2017-11-08T02:30:47.728Z,0
2017-11-08T02:31:50.095Z,0
2017-11-08T02:32:52.833Z,0
2017-11-08T02:33:55.551Z,0
2017-11-08T02:34:57.935Z,0
2017-11-08T02:36:00.299Z,0
2017-11-08T02:37:02.677Z,0
2017-11-08T02:38:05.039Z,0
2017-11-08T02:39:07.417Z,0
2017-11-08T02:40:09.791Z,0
2017-11-08T02:41:12.173Z,0
2017-11-08T02:42:14.549Z,0
2017-11-08T02:43:16.921Z,0
2017-11-08T02:44:19.647Z,0
2017-11-08T02:45:22.020Z,0
2017-11-08T02:46:24.397Z,0
2017-11-08T02:47:26.766Z,0
2017-11-08T02:48:29.132Z,0
2017-11-08T02:49:31.514Z,0
2017-11-08T02:50:33.887Z,0
2017-11-08T02:51:36.596Z,0
2017-11-08T02:52:39.323Z,0
2017-11-08T02:53:42.050Z,0
2017-11-08T02:54:44.429Z,0
2017-11-08T02:55:47.155Z,0
2017-11-08T02:56:49.885Z,0
2017-11-08T02:57:52.251Z,0
2017-11-08T02:58:54.636Z,0
2017-11-08T02:59:57.368Z,0
2017-11-08T03:01:00.432Z,0
2017-11-08T03:02:03.183Z,0
2017-11-08T03:03:05.576Z,0
2017-11-08T03:04:07.946Z,0
2017-11-08T03:05:10.328Z,0
2017-11-08T03:06:12.690Z,0
2017-11-08T03:07:15.062Z,0
2017-11-08T03:08:17.441Z,0
2017-11-08T03:09:19.820Z,0
2017-11-08T03:10:22.189Z,0
2017-11-08T03:11:24.568Z,0
2017-11-08T03:12:26.938Z,0
2017-11-08T03:13:29.326Z,0
2017-11-08T03:14:31.693Z,0
2017-11-08T03:15:34.062Z,0
2017-11-08T03:16:36.431Z,0
2017-11-08T03:17:38.805Z,0
2017-11-08T03:18:41.184Z,0
2017-11-08T03:19:43.548Z,0
2017-11-08T03:20:45.939Z,0
2017-11-08T03:21:48.309Z,0
2017-11-08T03:22:50.671Z,0
2017-11-08T03:23:53.050Z,0
2017-11-08T03:24:55.421Z,0
2017-11-08T03:25:57.805Z,0
2017-11-08T03:27:00.190Z,0
2017-11-08T03:28:02.554Z,0
2017-11-08T03:29:04.928Z,0
2017-11-08T03:30:07.312Z,0
2017-11-08T03:31:09.678Z,0
2017-11-08T03:32:12.051Z,0
2017-11-08T03:33:14.424Z,0
2017-11-08T03:34:16.811Z,0
2017-11-08T03:35:19.184Z,0
2017-11-08T03:36:21.556Z,0
2017-11-08T03:37:24.282Z,0
2017-11-08T03:38:27.355Z,0
2017-11-08T03:39:29.723Z,0
2017-11-08T03:40:32.109Z,0
2017-11-08T03:41:34.470Z,0
2017-11-08T03:42:36.843Z,0
2017-11-08T03:43:39.214Z,0
2017-11-08T03:44:41.586Z,0
2017-11-08T03:45:43.966Z,0
2017-11-08T03:46:46.340Z,0
2017-11-08T03:47:48.708Z,0
2017-11-08T03:48:51.095Z,0
2017-11-08T03:49:53.808Z,0
2017-11-08T03:50:56.179Z,0
2017-11-08T03:51:58.553Z,0
2017-11-08T03:53:00.933Z,0
2017-11-08T03:54:03.667Z,0
2017-11-08T03:55:06.054Z,0
2017-11-08T03:56:08.432Z,0
2017-11-08T03:57:10.810Z,0
2017-11-08T03:58:13.535Z,0
2017-11-08T03:59:15.908Z,0
2017-11-08T04:00:18.621Z,0
2017-11-08T04:01:21.006Z,0
2017-11-08T04:02:23.374Z,0
2017-11-08T04:03:25.749Z,0
2017-11-08T04:04:28.122Z,0
2017-11-08T04:05:30.486Z,0
2017-11-08T04:06:32.863Z,0
2017-11-08T04:07:35.241Z,0
2017-11-08T04:08:37.602Z,0
2017-11-08T04:09:39.976Z,0
2017-11-08T04:10:42.345Z,0
2017-11-08T04:11:45.411Z,0
2017-11-08T04:12:47.800Z,0
2017-11-08T04:13:50.168Z,0
2017-11-08T04:14:52.529Z,0
2017-11-08T04:15:54.914Z,0
2017-11-08T04:16:57.654Z,0
2017-11-08T04:18:00.024Z,0
2017-11-08T04:19:02.395Z,0
2017-11-08T04:20:05.124Z,0
2017-11-08T04:21:07.498Z,0
2017-11-08T04:22:09.942Z,0
2017-11-08T04:23:12.316Z,0
2017-11-08T04:24:14.697Z,0
2017-11-08T04:25:17.072Z,0
2017-11-08T04:26:19.443Z,0
2017-11-08T04:27:21.823Z,0
2017-11-08T04:28:24.574Z,0
2017-11-08T04:29:26.952Z,0
2017-11-08T04:30:29.325Z,0
2017-11-08T04:31:31.697Z,0
2017-11-08T04:32:34.068Z,0
2017-11-08T04:33:36.448Z,0
2017-11-08T04:34:38.822Z,0
2017-11-08T04:35:41.553Z,0
2017-11-08T04:36:44.270Z,0
2017-11-08T04:37:46.645Z,0
2017-11-08T04:38:49.031Z,0
2017-11-08T04:39:51.400Z,0
2017-11-08T04:40:53.774Z,0
2017-11-08T04:41:56.151Z,0
2017-11-08T04:42:58.524Z,0
2017-11-08T04:44:00.894Z,0
2017-11-08T04:45:03.285Z,0
2017-11-08T04:46:05.644Z,0
2017-11-08T04:47:08.035Z,0
2017-11-08T04:48:10.428Z,0
2017-11-08T04:49:12.790Z,0
2017-11-08T04:50:15.165Z,0
2017-11-08T04:51:18.253Z,0
2017-11-08T04:52:20.635Z,0
2017-11-08T04:53:22.992Z,0
2017-11-08T04:54:25.718Z,0
2017-11-08T04:55:28.100Z,0
2017-11-08T04:56:30.474Z,0
2017-11-08T04:57:33.213Z,0
2017-11-08T04:58:35.935Z,0
2017-11-08T04:59:38.306Z,0
2017-11-08T05:00:41.040Z,0
2017-11-08T05:01:43.414Z,0
2017-11-08T05:02:45.776Z,0
2017-11-08T05:03:48.155Z,0
2017-11-08T05:04:50.864Z,0
2017-11-08T05:05:53.240Z,0
2017-11-08T05:06:55.613Z,0
2017-11-08T05:07:57.987Z,0
2017-11-08T05:09:00.355Z,0
2017-11-08T05:10:02.745Z,0
2017-11-08T05:11:05.105Z,0
2017-11-08T05:12:07.499Z,0
2017-11-08T05:13:10.257Z,0
2017-11-08T05:14:12.642Z,0
2017-11-08T05:15:15.011Z,0
2017-11-08T05:16:17.391Z,0
2017-11-08T05:17:19.768Z,0
2017-11-08T05:18:22.151Z,0
2017-11-08T05:19:24.515Z,0
2017-11-08T05:20:27.255Z,0
2017-11-08T05:21:29.632Z,0
2017-11-08T05:22:32.009Z,0
2017-11-08T05:23:34.369Z,0
2017-11-08T05:24:36.746Z,0
2017-11-08T05:25:39.116Z,0
2017-11-08T05:26:41.506Z,0
2017-11-08T05:27:43.875Z,0
2017-11-08T05:28:46.243Z,0
2017-11-08T05:29:48.616Z,0
2017-11-08T05:30:50.995Z,0
2017-11-08T05:31:53.373Z,0
2017-11-08T05:32:56.106Z,0
2017-11-08T05:33:58.495Z,0
2017-11-08T05:35:00.864Z,0
2017-11-08T05:36:03.253Z,0
2017-11-08T05:37:05.621Z,0
2017-11-08T05:38:07.986Z,0
2017-11-08T05:39:10.390Z,0
2017-11-08T05:40:12.740Z,0
2017-11-08T05:41:15.112Z,0
2017-11-08T05:42:17.496Z,0
2017-11-08T05:43:19.860Z,0
2017-11-08T05:44:22.579Z,0
2017-11-08T05:45:24.964Z,0
2017-11-08T05:46:27.337Z,0
2017-11-08T05:47:29.703Z,0
2017-11-08T05:48:32.079Z,0
2017-11-08T05:49:34.447Z,0
2017-11-08T05:50:36.816Z,0
2017-11-08T05:51:39.195Z,0
2017-11-08T05:52:41.565Z,0
2017-11-08T05:53:43.947Z,0
2017-11-08T05:54:46.313Z,0
2017-11-08T05:55:48.691Z,0
2017-11-08T05:56:51.065Z,0
2017-11-08T05:57:53.440Z,0
2017-11-08T05:58:55.809Z,0
2017-11-08T05:59:58.180Z,0
2017-11-08T06:01:00.554Z,0
2017-11-08T06:02:02.933Z,0
2017-11-08T06:03:05.306Z,0
2017-11-08T06:04:07.683Z,0
2017-11-08T06:05:10.414Z,0
2017-11-08T06:06:13.133Z,0
2017-11-08T06:07:15.565Z,0
2017-11-08T06:08:17.947Z,0
2017-11-08T06:09:20.308Z,0
2017-11-08T06:10:22.700Z,0
2017-11-08T06:11:25.421Z,0
2017-11-08T06:12:27.795Z,0
2017-11-08T06:13:30.169Z,0
2017-11-08T06:14:32.544Z,0
2017-11-08T06:15:34.946Z,0
2017-11-08T06:16:37.325Z,0
2017-11-08T06:17:39.694Z,0
2017-11-08T06:18:42.069Z,0
2017-11-08T06:19:44.443Z,0
2017-11-08T06:20:46.824Z,0
2017-11-08T06:21:49.198Z,0
2017-11-08T06:22:51.574Z,0
2017-11-08T06:23:53.957Z,0
2017-11-08T06:24:56.674Z,0
2017-11-08T06:25:59.078Z,0
2017-11-08T06:27:01.792Z,1
2017-11-08T06:28:04.171Z,1
2017-11-08T06:29:06.543Z,1
2017-11-08T06:30:08.924Z,1
2017-11-08T06:31:11.294Z,1
2017-11-08T06:32:13.676Z,1
2017-11-08T06:33:16.046Z,1
2017-11-08T06:34:18.425Z,1
2017-11-08T06:35:20.806Z,2
2017-11-08T06:36:23.185Z,2
2017-11-08T06:37:26.263Z,2
2017-11-08T06:38:28.632Z,2
2017-11-08T06:39:31.013Z,2
2017-11-08T06:40:33.387Z,2
2017-11-08T06:41:35.757Z,2
2017-11-08T06:42:38.138Z,2
2017-11-08T06:43:40.503Z,3
2017-11-08T06:44:43.241Z,3
2017-11-08T06:45:45.616Z,3
2017-11-08T06:46:47.990Z,3
2017-11-08T06:47:50.374Z,4
2017-11-08T06:48:52.753Z,4
2017-11-08T06:49:55.117Z,4
2017-11-08T06:50:57.500Z,4
2017-11-08T06:51:59.869Z,5
2017-11-08T06:53:02.244Z,5
2017-11-08T06:54:04.622Z,5
2017-11-08T06:55:07.002Z,5
2017-11-08T06:56:09.373Z,5
2017-11-08T06:57:11.763Z,5
2017-11-08T06:58:14.140Z,5
2017-11-08T06:59:16.859Z,6
2017-11-08T07:00:19.224Z,6
2017-11-08T07:01:21.942Z,6
2017-11-08T07:02:24.321Z,6
2017-11-08T07:03:26.699Z,7
2017-11-08T07:04:29.453Z,7
2017-11-08T07:05:32.172Z,8
2017-11-08T07:06:34.552Z,8
2017-11-08T07:07:37.275Z,8
2017-11-08T07:08:39.634Z,9
2017-11-08T07:09:42.016Z,10
2017-11-08T07:10:44.734Z,10
2017-11-08T07:11:47.110Z,10
2017-11-08T07:12:49.486Z,10
2017-11-08T07:13:52.214Z,10
2017-11-08T07:14:54.587Z,11
2017-11-08T07:15:56.967Z,11
2017-11-08T07:16:59.335Z,12
2017-11-08T07:18:01.741Z,12
2017-11-08T07:19:04.113Z,12
2017-11-08T07:20:06.493Z,12
2017-11-08T07:21:09.218Z,13
2017-11-08T07:22:11.596Z,13
2017-11-08T07:23:13.972Z,14
2017-11-08T07:24:16.706Z,14
2017-11-08T07:25:19.071Z,14
2017-11-08T07:26:21.453Z,14
2017-11-08T07:27:23.875Z,15
2017-11-08T07:28:26.576Z,17
2017-11-08T07:29:28.951Z,18
2017-11-08T07:30:31.321Z,18
2017-11-08T07:31:33.690Z,18
2017-11-08T07:32:36.076Z,18
2017-11-08T07:33:38.451Z,18
2017-11-08T07:34:40.818Z,18
2017-11-08T07:35:43.194Z,17
2017-11-08T07:36:45.573Z,17
2017-11-08T07:37:47.942Z,17
2017-11-08T07:38:50.326Z,17
2017-11-08T07:39:52.679Z,17
2017-11-08T07:40:55.057Z,17
2017-11-08T07:41:57.435Z,18
2017-11-08T07:42:59.829Z,18
2017-11-08T07:44:02.582Z,19
2017-11-08T07:45:04.955Z,19
2017-11-08T07:46:07.335Z,20
2017-11-08T07:47:09.724Z,19
2017-11-08T07:48:12.088Z,20
2017-11-08T07:49:14.478Z,19
2017-11-08T07:50:16.844Z,19
2017-11-08T07:51:19.225Z,19
2017-11-08T07:52:21.656Z,19
2017-11-08T07:53:24.087Z,20
2017-11-08T07:54:26.560Z,22
2017-11-08T07:55:28.988Z,28
2017-11-08T07:56:31.455Z,31
2017-11-08T07:57:33.889Z,34
2017-11-08T07:58:36.366Z,40
2017-11-08T07:59:38.841Z,44
2017-11-08T08:00:41.294Z,47
2017-11-08T08:01:43.769Z,51
2017-11-08T08:02:46.197Z,56
2017-11-08T08:03:48.651Z,59
2017-11-08T08:04:51.487Z,54
2017-11-08T08:05:53.926Z,51
2017-11-08T08:06:56.391Z,49
2017-11-08T08:07:59.170Z,50
2017-11-08T08:09:01.609Z,47
2017-11-08T08:10:04.073Z,46
2017-11-08T08:11:06.583Z,42
2017-11-08T08:12:09.048Z,37
2017-11-08T08:13:11.485Z,35
2017-11-08T08:14:14.633Z,30
2017-11-08T08:15:17.491Z,24
2017-11-08T08:16:19.930Z,20
2017-11-08T08:17:22.378Z,20
2017-11-08T08:18:24.876Z,22
2017-11-08T08:19:27.355Z,23
2017-11-08T08:20:29.863Z,28
2017-11-08T08:21:32.325Z,33
2017-11-08T08:22:34.752Z,34
2017-11-08T08:23:37.200Z,36
2017-11-08T08:24:39.749Z,39
2017-11-08T08:25:42.179Z,45
2017-11-08T08:26:45.099Z,47
2017-11-08T08:27:47.958Z,47
2017-11-08T08:28:50.553Z,50
2017-11-08T08:29:53.015Z,51
2017-11-08T08:30:55.441Z,49
2017-11-08T08:31:58.234Z,50
2017-11-08T08:33:00.673Z,53
2017-11-08T08:34:03.110Z,53
2017-11-08T08:35:05.541Z,56
2017-11-08T08:36:07.985Z,63
2017-11-08T08:37:10.420Z,72
2017-11-08T08:38:12.855Z,84
2017-11-08T08:39:15.294Z,75
2017-11-08T08:40:18.100Z,71
2017-11-08T08:41:20.548Z,68
2017-11-08T08:42:23.330Z,64
2017-11-08T08:43:25.763Z,56
2017-11-08T08:44:28.194Z,53
2017-11-08T08:45:30.742Z,52
2017-11-08T08:46:33.205Z,48
2017-11-08T08:47:35.648Z,42
2017-11-08T08:48:38.077Z,43
2017-11-08T08:49:40.507Z,44
2017-11-08T08:50:42.950Z,45
2017-11-08T08:51:45.729Z,53
2017-11-08T08:52:48.156Z,51
2017-11-08T08:53:50.604Z,47
2017-11-08T08:54:53.032Z,67
2017-11-08T08:55:55.466Z,90
2017-11-08T08:56:57.909Z,88
2017-11-08T08:58:00.341Z,70
2017-11-08T08:59:02.782Z,55
2017-11-08T09:00:05.223Z,51
2017-11-08T09:01:08.018Z,50
2017-11-08T09:02:10.448Z,45
2017-11-08T09:03:12.891Z,44
2017-11-08T09:04:15.331Z,43
2017-11-08T09:05:17.749Z,43
2017-11-08T09:06:20.190Z,40
2017-11-08T09:07:22.621Z,40
2017-11-08T09:08:25.065Z,42
2017-11-08T09:09:27.528Z,40
2017-11-08T09:10:29.966Z,47
2017-11-08T09:11:32.393Z,44
2017-11-08T09:12:34.833Z,42
2017-11-08T09:13:37.281Z,44
2017-11-08T09:14:39.701Z,43
2017-11-08T09:15:42.136Z,43
2017-11-08T09:16:44.562Z,42
2017-11-08T09:17:47.004Z,45
2017-11-08T09:18:49.427Z,43
2017-11-08T09:19:51.841Z,40
2017-11-08T09:20:54.287Z,43
2017-11-08T09:21:56.725Z,46
2017-11-08T09:22:59.160Z,60
2017-11-08T09:24:01.591Z,60
2017-11-08T09:25:04.029Z,63
2017-11-08T09:26:06.466Z,72
2017-11-08T09:27:08.909Z,68
2017-11-08T09:28:11.758Z,63
2017-11-08T09:29:14.198Z,68
2017-11-08T09:30:16.635Z,117
2017-11-08T09:31:19.069Z,124
2017-11-08T09:32:21.510Z,138
2017-11-08T09:33:23.959Z,158
2017-11-08T09:34:26.399Z,161
2017-11-08T09:35:28.831Z,147
2017-11-08T09:36:31.265Z,146
2017-11-08T09:37:33.690Z,150
2017-11-08T09:38:36.137Z,149
2017-11-08T09:39:38.565Z,141
2017-11-08T09:40:40.996Z,129
2017-11-08T09:41:43.431Z,154
2017-11-08T09:42:45.874Z,141
2017-11-08T09:43:48.302Z,138
2017-11-08T09:44:51.106Z,101
2017-11-08T09:45:53.547Z,85
2017-11-08T09:46:55.985Z,84
2017-11-08T09:47:58.431Z,106
2017-11-08T09:49:00.867Z,82
2017-11-08T09:50:03.308Z,76
2017-11-08T09:51:05.740Z,70
2017-11-08T09:52:08.183Z,73
2017-11-08T09:53:10.638Z,79
2017-11-08T09:54:13.430Z,87
2017-11-08T09:55:15.867Z,78
2017-11-08T09:56:18.305Z,105
2017-11-08T09:57:21.461Z,93
2017-11-08T09:58:23.906Z,102
2017-11-08T09:59:26.334Z,113
2017-11-08T10:00:28.772Z,99
2017-11-08T10:01:31.209Z,104
2017-11-08T10:02:33.635Z,115
2017-11-08T10:03:36.073Z,87
2017-11-08T10:04:38.922Z,73
2017-11-08T10:05:41.325Z,69
2017-11-08T10:06:43.763Z,74
2017-11-08T10:07:46.195Z,77
2017-11-08T10:08:48.649Z,83
2017-11-08T10:09:51.227Z,88
2017-11-08T10:10:53.894Z,78
2017-11-08T10:11:56.341Z,98
2017-11-08T10:12:59.195Z,102
2017-11-08T10:14:01.690Z,99
2017-11-08T10:15:04.494Z,121
2017-11-08T10:16:07.720Z,96
2017-11-08T10:17:10.340Z,86
2017-11-08T10:18:12.775Z,85
2017-11-08T10:19:15.206Z,75
2017-11-08T10:20:17.649Z,53
2017-11-08T10:21:20.084Z,59
2017-11-08T10:22:22.519Z,67
2017-11-08T10:23:24.966Z,110
2017-11-08T10:24:27.409Z,92
2017-11-08T10:25:29.846Z,70
2017-11-08T10:26:32.295Z,54
2017-11-08T10:27:34.725Z,41
2017-11-08T10:28:37.164Z,36
2017-11-08T10:29:39.961Z,41
2017-11-08T10:30:42.744Z,49
2017-11-08T10:31:45.186Z,55
2017-11-08T10:32:47.618Z,55
2017-11-08T10:33:50.057Z,50
2017-11-08T10:34:52.493Z,46
2017-11-08T10:35:54.941Z,49
2017-11-08T10:36:57.364Z,47
2017-11-08T10:38:00.178Z,40
2017-11-08T10:39:02.618Z,40
2017-11-08T10:40:05.053Z,38
2017-11-08T10:41:07.837Z,42
2017-11-08T10:42:13.282Z,40
2017-11-08T10:43:16.908Z,38
2017-11-08T10:44:19.351Z,39
2017-11-08T10:45:22.185Z,45
2017-11-08T10:46:24.615Z,43
2017-11-08T10:47:27.413Z,44
2017-11-08T10:48:29.845Z,47
2017-11-08T10:49:32.643Z,46
2017-11-08T10:50:35.056Z,52
2017-11-08T10:51:37.499Z,49
2017-11-08T10:52:39.958Z,49
2017-11-08T10:53:42.367Z,55
2017-11-08T10:54:44.806Z,56
2017-11-08T10:55:47.238Z,48
2017-11-08T10:56:49.662Z,49
2017-11-08T10:57:52.113Z,50
2017-11-08T10:58:54.539Z,50
2017-11-08T10:59:56.970Z,44
2017-11-08T11:00:59.406Z,40
2017-11-08T11:02:01.833Z,39
2017-11-08T11:03:04.266Z,39
2017-11-08T11:04:06.705Z,33
2017-11-08T11:05:09.133Z,27
2017-11-08T11:06:11.567Z,25
2017-11-08T11:07:14.348Z,25
2017-11-08T11:08:16.777Z,20
2017-11-08T11:09:19.219Z,17
2017-11-08T11:10:21.643Z,16
2017-11-08T11:11:24.427Z,16
2017-11-08T11:12:26.873Z,16
2017-11-08T11:13:29.651Z,14
2017-11-08T11:14:32.084Z,14
2017-11-08T11:15:34.525Z,13
2017-11-08T11:16:37.316Z,13
2017-11-08T11:17:39.756Z,13
2017-11-08T11:18:42.174Z,16
2017-11-08T11:19:44.622Z,19
2017-11-08T11:20:47.046Z,24
2017-11-08T11:21:49.485Z,32
2017-11-08T11:22:51.906Z,34
2017-11-08T11:23:54.342Z,32
2017-11-08T11:24:56.770Z,29
2017-11-08T11:25:59.207Z,26
2017-11-08T11:27:01.997Z,27
2017-11-08T11:28:04.417Z,27
2017-11-08T11:29:07.234Z,29
2017-11-08T11:30:09.658Z,25
2017-11-08T11:31:12.101Z,21
2017-11-08T11:32:14.534Z,18
2017-11-08T11:33:16.954Z,17
2017-11-08T11:34:19.393Z,18
2017-11-08T11:35:21.825Z,20
2017-11-08T11:36:24.258Z,20
2017-11-08T11:37:26.689Z,20
2017-11-08T11:38:29.124Z,22
2017-11-08T11:39:31.546Z,25
2017-11-08T11:40:33.994Z,26
2017-11-08T11:41:36.421Z,25
2017-11-08T11:42:38.841Z,26
2017-11-08T11:43:41.281Z,30
2017-11-08T11:44:43.709Z,29
2017-11-08T11:45:46.140Z,27
2017-11-08T11:46:48.572Z,26
2017-11-08T11:47:50.998Z,22
2017-11-08T11:48:53.436Z,25
2017-11-08T11:49:55.865Z,22
2017-11-08T11:50:58.302Z,18
2017-11-08T11:52:00.737Z,18
2017-11-08T11:53:03.536Z,19
2017-11-08T11:54:05.976Z,19
2017-11-08T11:55:08.399Z,19
2017-11-08T11:56:10.830Z,18
2017-11-08T11:57:13.260Z,19
2017-11-08T11:58:15.688Z,25
2017-11-08T11:59:18.114Z,30
2017-11-08T12:00:20.910Z,30
2017-11-08T12:01:23.327Z,27
2017-11-08T12:02:25.764Z,29
2017-11-08T12:03:28.911Z,29
2017-11-08T12:04:31.333Z,25
2017-11-08T12:05:34.125Z,24
2017-11-08T12:06:36.560Z,23
2017-11-08T12:07:38.994Z,23
2017-11-08T12:08:41.434Z,21
2017-11-08T12:09:43.864Z,21
2017-11-08T12:10:46.300Z,22
2017-11-08T12:11:48.731Z,22
2017-11-08T12:12:51.170Z,21
2017-11-08T12:13:53.601Z,19
2017-11-08T12:14:56.027Z,19
2017-11-08T12:15:58.477Z,19
2017-11-08T12:17:00.900Z,17
2017-11-08T12:18:03.353Z,17
2017-11-08T12:19:05.793Z,18
2017-11-08T12:20:08.229Z,18
2017-11-08T12:21:10.680Z,20
2017-11-08T12:22:13.115Z,20
2017-11-08T12:23:15.537Z,21
2017-11-08T12:24:18.323Z,24
2017-11-08T12:25:20.757Z,26
2017-11-08T12:26:23.185Z,27
2017-11-08T12:27:25.615Z,27
2017-11-08T12:28:28.045Z,28
2017-11-08T12:29:30.496Z,30
2017-11-08T12:30:32.936Z,27
2017-11-08T12:31:35.741Z,27
2017-11-08T12:32:38.165Z,25
2017-11-08T12:33:40.960Z,23
2017-11-08T12:34:43.399Z,22
2017-11-08T12:35:46.185Z,21
2017-11-08T12:36:48.624Z,19
2017-11-08T12:37:51.053Z,19
2017-11-08T12:38:53.491Z,19
2017-11-08T12:39:55.937Z,19
2017-11-08T12:40:58.364Z,23
2017-11-08T12:42:00.791Z,30
2017-11-08T12:43:03.224Z,41
2017-11-08T12:44:05.660Z,53
2017-11-08T12:45:08.152Z,73
2017-11-08T12:46:10.580Z,68
2017-11-08T12:47:13.021Z,70
2017-11-08T12:48:15.457Z,74
2017-11-08T12:49:17.874Z,66
2017-11-08T12:50:20.678Z,51
2017-11-08T12:51:23.100Z,45
2017-11-08T12:52:25.533Z,44
2017-11-08T12:53:27.967Z,45
2017-11-08T12:54:30.397Z,42
2017-11-08T12:55:33.181Z,42
2017-11-08T12:56:35.625Z,42
2017-11-08T12:57:38.419Z,45
2017-11-08T12:58:40.855Z,48
2017-11-08T12:59:43.293Z,51
2017-11-08T13:00:45.722Z,51
2017-11-08T13:01:48.161Z,47
2017-11-08T13:02:50.587Z,43
2017-11-08T13:03:53.013Z,40
2017-11-08T13:04:55.458Z,45
2017-11-08T13:05:57.882Z,49
2017-11-08T13:07:00.318Z,51
2017-11-08T13:08:02.745Z,55
2017-11-08T13:09:05.537Z,58
2017-11-08T13:10:07.971Z,61
2017-11-08T13:11:10.411Z,63
2017-11-08T13:12:12.841Z,62
2017-11-08T13:13:15.631Z,58
2017-11-08T13:14:18.063Z,56
2017-11-08T13:15:20.493Z,60
2017-11-08T13:16:22.933Z,67
2017-11-08T13:17:25.375Z,75
2017-11-08T13:18:27.808Z,80
2017-11-08T13:19:30.234Z,72
2017-11-08T13:20:32.679Z,66
2017-11-08T13:21:35.112Z,58
2017-11-08T13:22:37.561Z,53
2017-11-08T13:23:39.997Z,48
2017-11-08T13:24:42.420Z,44
2017-11-08T13:25:44.865Z,38
2017-11-08T13:26:47.292Z,35
2017-11-08T13:27:49.722Z,34
2017-11-08T13:28:52.520Z,33
2017-11-08T13:29:54.936Z,31
2017-11-08T13:30:57.372Z,28
2017-11-08T13:31:59.810Z,28
2017-11-08T13:33:02.253Z,27
2017-11-08T13:34:04.689Z,24
2017-11-08T13:35:07.112Z,24
2017-11-08T13:36:09.544Z,22
2017-11-08T13:37:12.691Z,20
2017-11-08T13:38:15.150Z,18
2017-11-08T13:39:17.576Z,18
2017-11-08T13:40:20.415Z,18
2017-11-08T13:41:22.852Z,17
2017-11-08T13:42:25.284Z,17
2017-11-08T13:43:27.717Z,17
2017-11-08T13:44:30.152Z,16
2017-11-08T13:45:32.969Z,17
2017-11-08T13:46:35.389Z,18
2017-11-08T13:47:37.825Z,17
2017-11-08T13:48:40.265Z,16
2017-11-08T13:49:43.459Z,16
2017-11-08T13:50:45.902Z,16
2017-11-08T13:51:48.335Z,17
2017-11-08T13:52:51.119Z,16
2017-11-08T13:53:53.920Z,17
2017-11-08T13:54:56.358Z,18
2017-11-08T13:55:58.774Z,19
2017-11-08T13:57:01.222Z,21
2017-11-08T13:58:04.046Z,22
2017-11-08T13:59:06.473Z,22
2017-11-08T14:00:09.288Z,21
2017-11-08T14:01:11.725Z,21
2017-11-08T14:02:14.155Z,18
2017-11-08T14:03:16.604Z,18
2017-11-08T14:04:19.038Z,17
2017-11-08T14:05:21.826Z,16
2017-11-08T14:06:24.257Z,15
2017-11-08T14:07:26.682Z,15
2017-11-08T14:08:29.493Z,15
2017-11-08T14:09:31.925Z,16
2017-11-08T14:10:34.353Z,16
2017-11-08T14:11:36.789Z,17
2017-11-08T14:12:39.244Z,18
2017-11-08T14:13:42.033Z,17
2017-11-08T14:14:44.448Z,16
2017-11-08T14:15:46.880Z,15
2017-11-08T14:16:49.683Z,15
2017-11-08T14:17:52.119Z,15
2017-11-08T14:18:54.553Z,15
2017-11-08T14:19:56.981Z,14
2017-11-08T14:20:59.410Z,14
2017-11-08T14:22:01.857Z,13
2017-11-08T14:23:04.283Z,13
2017-11-08T14:24:07.806Z,13
2017-11-08T14:25:10.232Z,13
2017-11-08T14:26:12.674Z,13
2017-11-08T14:27:15.118Z,13
2017-11-08T14:28:17.547Z,12
2017-11-08T14:29:19.969Z,12
2017-11-08T14:30:22.789Z,11
2017-11-08T14:31:25.215Z,10
2017-11-08T14:32:28.017Z,10
2017-11-08T14:33:30.453Z,10
2017-11-08T14:34:32.879Z,9
2017-11-08T14:35:35.312Z,8
2017-11-08T14:36:37.754Z,8
2017-11-08T14:37:40.185Z,7
2017-11-08T14:38:42.617Z,7
2017-11-08T14:39:45.422Z,7
2017-11-08T14:40:47.859Z,6
2017-11-08T14:41:50.296Z,6
2017-11-08T14:42:53.097Z,6
2017-11-08T14:43:55.533Z,6
2017-11-08T14:44:57.963Z,5
2017-11-08T14:46:00.398Z,5
2017-11-08T14:47:02.844Z,5
2017-11-08T14:48:05.642Z,5
2017-11-08T14:49:08.435Z,5
2017-11-08T14:50:10.869Z,4
2017-11-08T14:51:13.663Z,4
2017-11-08T14:52:16.086Z,4
2017-11-08T14:53:18.526Z,4
2017-11-08T14:54:20.956Z,4
2017-11-08T14:55:23.750Z,4
2017-11-08T14:56:26.546Z,4
2017-11-08T14:57:28.977Z,4
2017-11-08T14:58:31.412Z,3
2017-11-08T14:59:33.844Z,3
2017-11-08T15:00:36.618Z,3
2017-11-08T15:01:39.061Z,3
2017-11-08T15:02:41.501Z,3
2017-11-08T15:03:43.935Z,3
2017-11-08T15:04:46.375Z,3
2017-11-08T15:05:48.807Z,2
2017-11-08T15:06:51.230Z,2